Air Navigation Services of Czech Republic  
Last data update:  24.07.2021 07:50:29 UTC česká verze
   METEO Page displayed:  24.07.2021 07:51:48 UTC  
vysvětlivky
METAR EDDB 240720Z 11008KT CAVOK 23/14 Q1013 NOSIG=
METAR EDDC 240720Z 14005KT 090V170 CAVOK 22/14 Q1013 NOSIG=
METAR EDDE 240720Z 06003KT 360V110 CAVOK 19/13 Q1013 NOSIG=
METAR EDDF 240720Z 07006KT 040V110 CAVOK 21/15 Q1010 NOSIG=
METAR EDDM 240720Z 32004KT 250V020 CAVOK 20/14 Q1013 NOSIG=
METAR EDDN 240720Z VRB02KT CAVOK 23/14 Q1013 NOSIG=
METAR EDDP 240720Z VRB02KT CAVOK 20/15 Q1012 NOSIG=
METAR EDQM 240720Z 17004KT 110V210 CAVOK 21/14 Q1014=
METAR EPBY 240730Z 08007KT 040V110 CAVOK 22/15 Q1016=
METAR EPGD 240730Z 09004KT 030V190 9999 SCT020 20/15 Q1017=
METAR EPKK 240730Z VRB02KT CAVOK 22/15 Q1016=
METAR EPKT 240730Z 09003KT 030V120 CAVOK 23/14 Q1016=
METAR EPLL 240730Z 12004KT 080V160 CAVOK 22/14 Q1016=
METAR EPPO 240730Z 12006KT CAVOK 24/14 Q1015=
METAR EPRZ 240730Z 09004KT 040V140 CAVOK 23/17 Q1016=
METAR EPWA 240730Z VRB03KT 9999 FEW030 23/15 Q1016 NOSIG=
METAR EPWR 240730Z 11006KT CAVOK 23/14 Q1015=
METAR LHBP 240730Z VRB02KT CAVOK 26/14 Q1015 NOSIG=
METAR LHSM 240715Z AUTO 13003KT 080V180 9000 NCD 22/16 Q1015 NOSIG=
METAR LKBC 240730Z AUTO /////KT ///V/// CAVOK 21/13 Q1014=
METAR LKCV 240730Z 11006KT 070V130 CAVOK 23/13 Q1014 NOSIG RMK BLU BLU=
METAR LKKB 240730Z 06004KT 020V090 CAVOK 21/13 Q1014 NOSIG RMK BLU BLU=
METAR LKKU NIL
METAR LKKV 240730Z 03004KT 350V050 CAVOK 22/14 Q1014 RMK REG QNH 1012=
METAR LKLN 240730Z AUTO 04004KT 340V090 CAVOK 21/15 Q1014=
METAR LKMT 240730Z VRB03KT CAVOK 21/15 Q1015 NOSIG RMK REG QNH 1012=
METAR LKNA 240730Z 09008KT CAVOK 22/11 Q1015 NOSIG RMK BLU BLU=
METAR LKPD 240730Z 10006KT CAVOK 23/13 Q1014 NOSIG RMK BLU BLU=
METAR LKPJ 240730Z AUTO 04003KT 350V080 CAVOK 21/13 Q1015=
METAR LKPR 240730Z 08005KT 050V120 CAVOK 21/13 Q1014 NOSIG RMK REG QNH 1012=
METAR LKTB 240730Z 07007KT CAVOK 23/12 Q1015 NOSIG RMK REG QNH 1012=
METAR LKVO NIL
METAR LOWI 240720Z 29009KT 9999 FEW040CB SCT100 21/14 Q1013 NOSIG=
METAR LOWL 240720Z 10009KT 070V140 CAVOK 22/13 Q1013 NOSIG=
METAR LOWS 240720Z 15006KT 110V180 CAVOK 22/15 Q1012 NOSIG=
METAR LOWW 240720Z 11009KT CAVOK 22/12 Q1014 NOSIG=
METAR LZIB 240730Z 08007KT 040V110 CAVOK 22/13 Q1015 NOSIG=
METAR LZKZ 240730Z 11003KT 080V140 CAVOK 23/16 Q1016 NOSIG=
METAR LZMC 240700Z 12002KT CAVOK 24/12 Q1015=
METAR LZPP 240730Z VRB02KT CAVOK 22/13 Q1015=
METAR LZSL 240700Z 10002KT 9999 FEW050 19/14 Q1017=
METAR LZTT 240730Z VRB03KT 9999 FEW060 21/13 Q1017 NOSIG=
METAR LZZI 240730Z VRB02KT 9999 FEW022 22/14 Q1016=